sensor_id;sensor_type;location;lat;lon;timestamp;P1;P2;P0
70520;PMS5003;58442;52.716;23.560;2022-10-31T00:01:24;7;7;5
70520;PMS5003;58442;52.716;23.560;2022-10-31T00:03:27;7;7;6
70520;PMS5003;58442;52.716;23.560;2022-10-31T00:05:28;6;6;5
70520;PMS5003;58442;52.716;23.560;2022-10-31T00:07:36;9;9;6
70520;PMS5003;58442;52.716;23.560;2022-10-31T00:09:37;8;7;4
70520;PMS5003;58442;52.716;23.560;2022-10-31T00:11:39;7;7;5
70520;PMS5003;58442;52.716;23.560;2022-10-31T00:13:40;9;9;7
70520;PMS5003;58442;52.716;23.560;2022-10-31T00:15:51;9;9;7
70520;PMS5003;58442;52.716;23.560;2022-10-31T00:17:52;11;11;7
70520;PMS5003;58442;52.716;23.560;2022-10-31T00:19:53;10;10;7
70520;PMS5003;58442;52.716;23.560;2022-10-31T00:21:55;13;12;8
70520;PMS5003;58442;52.716;23.560;2022-10-31T00:24:06;13;13;9
70520;PMS5003;58442;52.716;23.560;2022-10-31T00:26:08;11;11;7
70520;PMS5003;58442;52.716;23.560;2022-10-31T00:28:09;8;8;6
70520;PMS5003;58442;52.716;23.560;2022-10-31T00:30:12;7;7;7
70520;PMS5003;58442;52.716;23.560;2022-10-31T00:32:21;11;11;4
70520;PMS5003;58442;52.716;23.560;2022-10-31T00:34:22;11;11;7
70520;PMS5003;58442;52.716;23.560;2022-10-31T00:36:23;7;7;5
70520;PMS5003;58442;52.716;23.560;2022-10-31T00:38:24;9;9;6
70520;PMS5003;58442;52.716;23.560;2022-10-31T00:40:36;9;9;7
70520;PMS5003;58442;52.716;23.560;2022-10-31T00:42:38;9;9;6
70520;PMS5003;58442;52.716;23.560;2022-10-31T00:44:42;10;10;6
70520;PMS5003;58442;52.716;23.560;2022-10-31T00:46:43;10;10;7
70520;PMS5003;58442;52.716;23.560;2022-10-31T00:48:51;5;5;3
70520;PMS5003;58442;52.716;23.560;2022-10-31T00:50:52;7;6;5
70520;PMS5003;58442;52.716;23.560;2022-10-31T00:52:53;8;7;5
70520;PMS5003;58442;52.716;23.560;2022-10-31T00:54:54;6;6;6
70520;PMS5003;58442;52.716;23.560;2022-10-31T00:57:06;7;7;4
70520;PMS5003;58442;52.716;23.560;2022-10-31T00:59:07;4;4;3
70520;PMS5003;58442;52.716;23.560;2022-10-31T01:01:08;4;4;2
70520;PMS5003;58442;52.716;23.560;2022-10-31T01:03:09;6;6;4
70520;PMS5003;58442;52.716;23.560;2022-10-31T01:05:21;4;4;3
70520;PMS5003;58442;52.716;23.560;2022-10-31T01:07:22;5;5;4
70520;PMS5003;58442;52.716;23.560;2022-10-31T01:09:23;5;5;4
70520;PMS5003;58442;52.716;23.560;2022-10-31T01:11:24;7;7;5
70520;PMS5003;58442;52.716;23.560;2022-10-31T01:13:35;7;7;5
70520;PMS5003;58442;52.716;23.560;2022-10-31T01:15:37;1;1;1
70520;PMS5003;58442;52.716;23.560;2022-10-31T01:17:38;5;5;4
70520;PMS5003;58442;52.716;23.560;2022-10-31T01:19:40;7;7;5
70520;PMS5003;58442;52.716;23.560;2022-10-31T01:21:53;4;4;3
70520;PMS5003;58442;52.716;23.560;2022-10-31T01:23:55;5;5;4
70520;PMS5003;58442;52.716;23.560;2022-10-31T01:26:00;5;5;3
70520;PMS5003;58442;52.716;23.560;2022-10-31T01:28:07;6;6;2
70520;PMS5003;58442;52.716;23.560;2022-10-31T01:30:08;5;5;4
70520;PMS5003;58442;52.716;23.560;2022-10-31T01:32:10;4;4;2
70520;PMS5003;58442;52.716;23.560;2022-10-31T01:34:12;5;5;3
70520;PMS5003;58442;52.716;23.560;2022-10-31T01:38:23;5;5;3
70520;PMS5003;58442;52.716;23.560;2022-10-31T01:40:28;3;3;3
70520;PMS5003;58442;52.716;23.560;2022-10-31T01:42:30;5;5;4
70520;PMS5003;58442;52.716;23.560;2022-10-31T01:46:52;5;5;3
70520;PMS5003;58442;52.716;23.560;2022-10-31T01:48:57;5;5;4
70520;PMS5003;58442;52.716;23.560;2022-10-31T01:51:00;5;5;4
70520;PMS5003;58442;52.716;23.560;2022-10-31T01:53:06;5;5;3
70520;PMS5003;58442;52.716;23.560;2022-10-31T01:55:14;4;4;3
70520;PMS5003;58442;52.716;23.560;2022-10-31T01:57:18;3;3;2
70520;PMS5003;58442;52.716;23.560;2022-10-31T01:59:33;3;3;2
70520;PMS5003;58442;52.716;23.560;2022-10-31T02:01:39;4;4;2
70520;PMS5003;58442;52.716;23.560;2022-10-31T02:03:41;4;4;3
70520;PMS5003;58442;52.716;23.560;2022-10-31T02:05:43;2;2;1
70520;PMS5003;58442;52.716;23.560;2022-10-31T02:10:09;2;2;1
70520;PMS5003;58442;52.716;23.560;2022-10-31T02:12:10;4;4;3
70520;PMS5003;58442;52.716;23.560;2022-10-31T02:14:12;3;3;3
70520;PMS5003;58442;52.716;23.560;2022-10-31T02:16:14;3;3;2
70520;PMS5003;58442;52.716;23.560;2022-10-31T02:18:24;3;3;2
70520;PMS5003;58442;52.716;23.560;2022-10-31T02:20:32;3;3;2
70520;PMS5003;58442;52.716;23.560;2022-10-31T02:43:20;3;3;2
70520;PMS5003;58442;52.716;23.560;2022-10-31T02:48:00;3;3;2
70520;PMS5003;58442;52.716;23.560;2022-10-31T02:50:12;4;4;2
70520;PMS5003;58442;52.716;23.560;2022-10-31T02:52:20;3;3;2
70520;PMS5003;58442;52.716;23.560;2022-10-31T02:54:26;3;3;2
70520;PMS5003;58442;52.716;23.560;2022-10-31T02:56:29;4;4;3
70520;PMS5003;58442;52.716;23.560;2022-10-31T02:58:31;4;4;3
70520;PMS5003;58442;52.716;23.560;2022-10-31T03:00:38;3;3;2
70520;PMS5003;58442;52.716;23.560;2022-10-31T03:09:33;2;2;2
70520;PMS5003;58442;52.716;23.560;2022-10-31T03:14:10;3;3;2
70520;PMS5003;58442;52.716;23.560;2022-10-31T03:16:39;3;3;2
70520;PMS5003;58442;52.716;23.560;2022-10-31T03:21:16;3;3;3
70520;PMS5003;58442;52.716;23.560;2022-10-31T03:23:32;1;1;1
70520;PMS5003;58442;52.716;23.560;2022-10-31T03:25:37;1;1;0
70520;PMS5003;58442;52.716;23.560;2022-10-31T03:27:42;2;2;2
70520;PMS5003;58442;52.716;23.560;2022-10-31T03:29:45;0;0;0
70520;PMS5003;58442;52.716;23.560;2022-10-31T03:31:53;5;5;4
70520;PMS5003;58442;52.716;23.560;2022-10-31T03:34:09;2;2;1
70520;PMS5003;58442;52.716;23.560;2022-10-31T03:36:11;0;0;0
70520;PMS5003;58442;52.716;23.560;2022-10-31T03:38:15;2;2;2
70520;PMS5003;58442;52.716;23.560;2022-10-31T03:40:16;3;3;2
70520;PMS5003;58442;52.716;23.560;2022-10-31T03:42:24;2;2;1
70520;PMS5003;58442;52.716;23.560;2022-10-31T03:44:26;2;2;2
70520;PMS5003;58442;52.716;23.560;2022-10-31T03:46:31;4;3;1
70520;PMS5003;58442;52.716;23.560;2022-10-31T03:48:32;2;2;1
70520;PMS5003;58442;52.716;23.560;2022-10-31T03:53:03;3;3;2
70520;PMS5003;58442;52.716;23.560;2022-10-31T03:55:12;2;2;2
70520;PMS5003;58442;52.716;23.560;2022-10-31T03:59:53;3;3;2
70520;PMS5003;58442;52.716;23.560;2022-10-31T04:01:47;2;2;2
70520;PMS5003;58442;52.716;23.560;2022-10-31T04:03:53;3;3;2
70520;PMS5003;58442;52.716;23.560;2022-10-31T04:05:56;3;3;2
70520;PMS5003;58442;52.716;23.560;2022-10-31T04:08:01;4;4;3
70520;PMS5003;58442;52.716;23.560;2022-10-31T04:10:07;2;2;2
70520;PMS5003;58442;52.716;23.560;2022-10-31T04:12:12;5;5;4
70520;PMS5003;58442;52.716;23.560;2022-10-31T04:14:26;4;4;3
70520;PMS5003;58442;52.716;23.560;2022-10-31T04:16:30;4;4;3
70520;PMS5003;58442;52.716;23.560;2022-10-31T04:18:32;5;5;4
70520;PMS5003;58442;52.716;23.560;2022-10-31T04:20:37;4;4;3
70520;PMS5003;58442;52.716;23.560;2022-10-31T04:22:41;2;2;1
70520;PMS5003;58442;52.716;23.560;2022-10-31T04:24:42;2;2;1
70520;PMS5003;58442;52.716;23.560;2022-10-31T04:26:43;3;3;3
70520;PMS5003;58442;52.716;23.560;2022-10-31T04:28:44;3;3;3
70520;PMS5003;58442;52.716;23.560;2022-10-31T04:30:55;3;3;3
70520;PMS5003;58442;52.716;23.560;2022-10-31T04:32:57;3;3;3
70520;PMS5003;58442;52.716;23.560;2022-10-31T04:34:58;3;3;2
70520;PMS5003;58442;52.716;23.560;2022-10-31T04:36:59;1;1;1
70520;PMS5003;58442;52.716;23.560;2022-10-31T04:39:10;2;2;1
70520;PMS5003;58442;52.716;23.560;2022-10-31T04:41:11;3;3;1
70520;PMS5003;58442;52.716;23.560;2022-10-31T04:43:12;3;3;2
70520;PMS5003;58442;52.716;23.560;2022-10-31T04:45:14;2;2;2
70520;PMS5003;58442;52.716;23.560;2022-10-31T04:47:25;4;4;2
70520;PMS5003;58442;52.716;23.560;2022-10-31T04:49:26;3;3;2
70520;PMS5003;58442;52.716;23.560;2022-10-31T04:51:27;1;1;1
70520;PMS5003;58442;52.716;23.560;2022-10-31T04:53:29;1;1;1
70520;PMS5003;58442;52.716;23.560;2022-10-31T04:55:40;4;4;2
70520;PMS5003;58442;52.716;23.560;2022-10-31T04:57:42;2;2;1
70520;PMS5003;58442;52.716;23.560;2022-10-31T04:59:44;2;2;2
70520;PMS5003;58442;52.716;23.560;2022-10-31T05:01:45;2;2;1
70520;PMS5003;58442;52.716;23.560;2022-10-31T05:03:55;2;2;2
70520;PMS5003;58442;52.716;23.560;2022-10-31T05:05:56;2;2;1
70520;PMS5003;58442;52.716;23.560;2022-10-31T05:07:57;1;1;1
70520;PMS5003;58442;52.716;23.560;2022-10-31T05:09:59;3;3;2
70520;PMS5003;58442;52.716;23.560;2022-10-31T05:12:10;3;2;1
70520;PMS5003;58442;52.716;23.560;2022-10-31T05:14:11;2;2;2
70520;PMS5003;58442;52.716;23.560;2022-10-31T05:16:12;0;0;0
70520;PMS5003;58442;52.716;23.560;2022-10-31T05:18:13;2;2;1
70520;PMS5003;58442;52.716;23.560;2022-10-31T05:20:26;2;2;2
70520;PMS5003;58442;52.716;23.560;2022-10-31T05:22:29;3;3;2
70520;PMS5003;58442;52.716;23.560;2022-10-31T05:24:30;0;0;0
70520;PMS5003;58442;52.716;23.560;2022-10-31T05:26:31;3;3;2
70520;PMS5003;58442;52.716;23.560;2022-10-31T05:28:40;5;5;3
70520;PMS5003;58442;52.716;23.560;2022-10-31T05:30:41;5;5;3
70520;PMS5003;58442;52.716;23.560;2022-10-31T05:32:43;8;6;3
70520;PMS5003;58442;52.716;23.560;2022-10-31T05:34:45;4;4;3
70520;PMS5003;58442;52.716;23.560;2022-10-31T05:36:55;4;4;3
70520;PMS5003;58442;52.716;23.560;2022-10-31T05:38:56;4;4;4
70520;PMS5003;58442;52.716;23.560;2022-10-31T05:40:57;10;9;6
70520;PMS5003;58442;52.716;23.560;2022-10-31T05:43:01;6;5;5
70520;PMS5003;58442;52.716;23.560;2022-10-31T05:45:10;6;5;4
70520;PMS5003;58442;52.716;23.560;2022-10-31T05:47:13;3;3;2
70520;PMS5003;58442;52.716;23.560;2022-10-31T05:49:15;7;7;4
70520;PMS5003;58442;52.716;23.560;2022-10-31T05:51:18;8;8;6
70520;PMS5003;58442;52.716;23.560;2022-10-31T05:53:24;6;6;3
70520;PMS5003;58442;52.716;23.560;2022-10-31T05:55:26;2;1;0
70520;PMS5003;58442;52.716;23.560;2022-10-31T05:57:28;7;7;3
70520;PMS5003;58442;52.716;23.560;2022-10-31T05:59:30;4;4;3
70520;PMS5003;58442;52.716;23.560;2022-10-31T06:01:39;2;2;2
70520;PMS5003;58442;52.716;23.560;2022-10-31T06:03:40;1;1;1
70520;PMS5003;58442;52.716;23.560;2022-10-31T06:05:42;1;1;0
70520;PMS5003;58442;52.716;23.560;2022-10-31T06:07:43;1;1;1
70520;PMS5003;58442;52.716;23.560;2022-10-31T06:09:54;2;2;1
70520;PMS5003;58442;52.716;23.560;2022-10-31T06:11:55;1;1;1
70520;PMS5003;58442;52.716;23.560;2022-10-31T06:13:57;1;1;1
70520;PMS5003;58442;52.716;23.560;2022-10-31T06:15:58;1;1;1
70520;PMS5003;58442;52.716;23.560;2022-10-31T06:18:09;6;5;5
70520;PMS5003;58442;52.716;23.560;2022-10-31T06:20:11;5;5;3
70520;PMS5003;58442;52.716;23.560;2022-10-31T06:22:12;5;5;3
70520;PMS5003;58442;52.716;23.560;2022-10-31T06:24:13;8;8;6
70520;PMS5003;58442;52.716;23.560;2022-10-31T06:26:24;9;9;4
70520;PMS5003;58442;52.716;23.560;2022-10-31T06:28:25;3;3;1
70520;PMS5003;58442;52.716;23.560;2022-10-31T06:30:26;2;2;2
70520;PMS5003;58442;52.716;23.560;2022-10-31T06:32:28;1;1;0
70520;PMS5003;58442;52.716;23.560;2022-10-31T06:34:39;2;2;2
70520;PMS5003;58442;52.716;23.560;2022-10-31T06:36:41;3;3;2
70520;PMS5003;58442;52.716;23.560;2022-10-31T06:38:42;3;3;2
70520;PMS5003;58442;52.716;23.560;2022-10-31T06:40:43;5;5;4
70520;PMS5003;58442;52.716;23.560;2022-10-31T06:42:57;1;1;1
70520;PMS5003;58442;52.716;23.560;2022-10-31T06:45:00;2;2;1
70520;PMS5003;58442;52.716;23.560;2022-10-31T06:47:01;3;3;2
70520;PMS5003;58442;52.716;23.560;2022-10-31T06:49:02;5;5;4
70520;PMS5003;58442;52.716;23.560;2022-10-31T06:51:09;3;3;2
70520;PMS5003;58442;52.716;23.560;2022-10-31T06:53:10;3;3;2
70520;PMS5003;58442;52.716;23.560;2022-10-31T06:55:13;2;2;2
70520;PMS5003;58442;52.716;23.560;2022-10-31T06:57:14;4;4;2
70520;PMS5003;58442;52.716;23.560;2022-10-31T06:59:24;4;4;3
70520;PMS5003;58442;52.716;23.560;2022-10-31T07:01:25;4;4;3
70520;PMS5003;58442;52.716;23.560;2022-10-31T07:03:27;5;5;4
70520;PMS5003;58442;52.716;23.560;2022-10-31T07:05:28;4;4;3
70520;PMS5003;58442;52.716;23.560;2022-10-31T07:07:39;3;3;3
70520;PMS5003;58442;52.716;23.560;2022-10-31T07:09:40;4;4;3
70520;PMS5003;58442;52.716;23.560;2022-10-31T07:11:41;4;4;3
70520;PMS5003;58442;52.716;23.560;2022-10-31T07:13:42;3;3;2
70520;PMS5003;58442;52.716;23.560;2022-10-31T07:15:54;3;3;2
70520;PMS5003;58442;52.716;23.560;2022-10-31T07:18:05;5;5;3
70520;PMS5003;58442;52.716;23.560;2022-10-31T07:20:08;5;5;3
70520;PMS5003;58442;52.716;23.560;2022-10-31T07:22:10;8;7;5
70520;PMS5003;58442;52.716;23.560;2022-10-31T07:24:12;10;10;6
70520;PMS5003;58442;52.716;23.560;2022-10-31T07:26:13;15;15;9
70520;PMS5003;58442;52.716;23.560;2022-10-31T07:28:15;20;19;11
70520;PMS5003;58442;52.716;23.560;2022-10-31T07:30:16;12;12;8
70520;PMS5003;58442;52.716;23.560;2022-10-31T07:32:27;15;14;11
70520;PMS5003;58442;52.716;23.560;2022-10-31T07:34:28;6;6;4
70520;PMS5003;58442;52.716;23.560;2022-10-31T07:36:29;7;7;4
70520;PMS5003;58442;52.716;23.560;2022-10-31T07:38:30;6;6;5
70520;PMS5003;58442;52.716;23.560;2022-10-31T07:40:42;5;5;3
70520;PMS5003;58442;52.716;23.560;2022-10-31T07:42:44;4;4;2
70520;PMS5003;58442;52.716;23.560;2022-10-31T07:44:47;7;7;5
70520;PMS5003;58442;52.716;23.560;2022-10-31T07:46:48;10;10;8
70520;PMS5003;58442;52.716;23.560;2022-10-31T07:48:57;7;7;6
70520;PMS5003;58442;52.716;23.560;2022-10-31T07:50:58;4;4;3
70520;PMS5003;58442;52.716;23.560;2022-10-31T07:55:08;7;7;5
70520;PMS5003;58442;52.716;23.560;2022-10-31T07:57:12;9;9;5
70520;PMS5003;58442;52.716;23.560;2022-10-31T07:59:13;3;3;2
70520;PMS5003;58442;52.716;23.560;2022-10-31T08:01:14;5;5;3
70520;PMS5003;58442;52.716;23.560;2022-10-31T08:03:16;4;4;3
70520;PMS5003;58442;52.716;23.560;2022-10-31T08:05:27;6;6;5
70520;PMS5003;58442;52.716;23.560;2022-10-31T08:07:28;7;7;4
70520;PMS5003;58442;52.716;23.560;2022-10-31T08:09:29;4;4;3
70520;PMS5003;58442;52.716;23.560;2022-10-31T08:11:30;6;6;4
70520;PMS5003;58442;52.716;23.560;2022-10-31T08:13:41;5;5;3
70520;PMS5003;58442;52.716;23.560;2022-10-31T08:15:43;3;3;2
70520;PMS5003;58442;52.716;23.560;2022-10-31T08:17:51;3;3;2
70520;PMS5003;58442;52.716;23.560;2022-10-31T08:19:53;6;6;3
70520;PMS5003;58442;52.716;23.560;2022-10-31T08:21:56;4;4;3
70520;PMS5003;58442;52.716;23.560;2022-10-31T08:23:58;0;0;0
70520;PMS5003;58442;52.716;23.560;2022-10-31T08:26:00;2;2;2
70520;PMS5003;58442;52.716;23.560;2022-10-31T08:28:01;4;4;3
70520;PMS5003;58442;52.716;23.560;2022-10-31T08:30:11;3;3;2
70520;PMS5003;58442;52.716;23.560;2022-10-31T08:32:13;2;2;1
70520;PMS5003;58442;52.716;23.560;2022-10-31T08:34:14;3;3;2
70520;PMS5003;58442;52.716;23.560;2022-10-31T08:36:15;1;1;1
70520;PMS5003;58442;52.716;23.560;2022-10-31T08:38:26;4;4;3
70520;PMS5003;58442;52.716;23.560;2022-10-31T08:40:28;5;5;3
70520;PMS5003;58442;52.716;23.560;2022-10-31T08:42:31;2;2;2
70520;PMS5003;58442;52.716;23.560;2022-10-31T08:44:32;3;3;2
70520;PMS5003;58442;52.716;23.560;2022-10-31T08:46:41;2;2;2
70520;PMS5003;58442;52.716;23.560;2022-10-31T08:48:42;1;1;1
70520;PMS5003;58442;52.716;23.560;2022-10-31T08:50:44;2;2;2
70520;PMS5003;58442;52.716;23.560;2022-10-31T08:52:46;2;2;1
70520;PMS5003;58442;52.716;23.560;2022-10-31T08:54:56;2;2;2
70520;PMS5003;58442;52.716;23.560;2022-10-31T08:56:57;3;3;2
70520;PMS5003;58442;52.716;23.560;2022-10-31T08:58:58;2;2;2
70520;PMS5003;58442;52.716;23.560;2022-10-31T09:01:00;3;3;2
70520;PMS5003;58442;52.716;23.560;2022-10-31T09:03:35;3;3;2
70520;PMS5003;58442;52.716;23.560;2022-10-31T09:05:36;4;4;3
70520;PMS5003;58442;52.716;23.560;2022-10-31T09:07:37;4;4;3
70520;PMS5003;58442;52.716;23.560;2022-10-31T09:09:38;2;2;1
70520;PMS5003;58442;52.716;23.560;2022-10-31T09:11:40;7;5;3
70520;PMS5003;58442;52.716;23.560;2022-10-31T09:13:41;5;5;4
70520;PMS5003;58442;52.716;23.560;2022-10-31T09:15:44;3;3;2
70520;PMS5003;58442;52.716;23.560;2022-10-31T09:17:47;3;3;3
70520;PMS5003;58442;52.716;23.560;2022-10-31T09:19:48;7;7;3
70520;PMS5003;58442;52.716;23.560;2022-10-31T09:21:53;8;8;6
70520;PMS5003;58442;52.716;23.560;2022-10-31T09:23:59;5;5;4
70520;PMS5003;58442;52.716;23.560;2022-10-31T09:26:00;5;5;3
70520;PMS5003;58442;52.716;23.560;2022-10-31T09:28:04;4;4;3
70520;PMS5003;58442;52.716;23.560;2022-10-31T09:30:06;4;4;2
70520;PMS5003;58442;52.716;23.560;2022-10-31T09:32:13;3;3;1
70520;PMS5003;58442;52.716;23.560;2022-10-31T09:34:15;5;5;4
70520;PMS5003;58442;52.716;23.560;2022-10-31T09:36:16;3;3;2
70520;PMS5003;58442;52.716;23.560;2022-10-31T09:38:18;5;5;4
70520;PMS5003;58442;52.716;23.560;2022-10-31T09:42:40;3;3;3
70520;PMS5003;58442;52.716;23.560;2022-10-31T09:47:12;3;3;3
70520;PMS5003;58442;52.716;23.560;2022-10-31T09:49:22;4;4;3
70520;PMS5003;58442;52.716;23.560;2022-10-31T09:53:42;4;4;2
70520;PMS5003;58442;52.716;23.560;2022-10-31T09:55:56;4;4;3
70520;PMS5003;58442;52.716;23.560;2022-10-31T09:57:59;2;2;1
70520;PMS5003;58442;52.716;23.560;2022-10-31T10:00:06;6;6;3
70520;PMS5003;58442;52.716;23.560;2022-10-31T10:06:34;2;2;1
70520;PMS5003;58442;52.716;23.560;2022-10-31T10:08:40;5;5;4
70520;PMS5003;58442;52.716;23.560;2022-10-31T10:15:24;2;2;2
70520;PMS5003;58442;52.716;23.560;2022-10-31T10:24:18;3;3;3
70520;PMS5003;58442;52.716;23.560;2022-10-31T10:26:35;1;1;1
70520;PMS5003;58442;52.716;23.560;2022-10-31T10:28:38;3;3;2
70520;PMS5003;58442;52.716;23.560;2022-10-31T10:30:45;2;2;2
70520;PMS5003;58442;52.716;23.560;2022-10-31T10:35:09;2;2;2
70520;PMS5003;58442;52.716;23.560;2022-10-31T10:37:20;3;3;2
70520;PMS5003;58442;52.716;23.560;2022-10-31T10:41:53;2;2;1
70520;PMS5003;58442;52.716;23.560;2022-10-31T10:44:14;3;3;3
70520;PMS5003;58442;52.716;23.560;2022-10-31T10:46:19;3;3;2
70520;PMS5003;58442;52.716;23.560;2022-10-31T10:50:52;1;1;1
70520;PMS5003;58442;52.716;23.560;2022-10-31T10:59:48;2;2;2
70520;PMS5003;58442;52.716;23.560;2022-10-31T11:01:50;4;4;3
70520;PMS5003;58442;52.716;23.560;2022-10-31T11:03:52;3;3;2
70520;PMS5003;58442;52.716;23.560;2022-10-31T11:05:54;3;3;2
70520;PMS5003;58442;52.716;23.560;2022-10-31T11:08:03;4;4;3
70520;PMS5003;58442;52.716;23.560;2022-10-31T11:10:05;1;1;1
70520;PMS5003;58442;52.716;23.560;2022-10-31T11:14:23;4;4;3
70520;PMS5003;58442;52.716;23.560;2022-10-31T11:18:41;3;3;2
70520;PMS5003;58442;52.716;23.560;2022-10-31T11:20:50;6;6;4
70520;PMS5003;58442;52.716;23.560;2022-10-31T11:23:01;4;4;4
70520;PMS5003;58442;52.716;23.560;2022-10-31T11:27:21;6;6;5
70520;PMS5003;58442;52.716;23.560;2022-10-31T11:29:24;3;3;2
70520;PMS5003;58442;52.716;23.560;2022-10-31T11:31:26;5;5;3
70520;PMS5003;58442;52.716;23.560;2022-10-31T11:35:38;4;4;3
70520;PMS5003;58442;52.716;23.560;2022-10-31T11:37:41;4;4;3
70520;PMS5003;58442;52.716;23.560;2022-10-31T11:40:03;6;6;5
70520;PMS5003;58442;52.716;23.560;2022-10-31T11:42:16;7;7;4
70520;PMS5003;58442;52.716;23.560;2022-10-31T11:44:21;4;4;2
70520;PMS5003;58442;52.716;23.560;2022-10-31T11:47:12;5;5;4
70520;PMS5003;58442;52.716;23.560;2022-10-31T11:48:40;4;4;3
70520;PMS5003;58442;52.716;23.560;2022-10-31T11:50:54;3;3;2
70520;PMS5003;58442;52.716;23.560;2022-10-31T11:52:57;6;6;4
70520;PMS5003;58442;52.716;23.560;2022-10-31T11:55:00;4;4;3
70520;PMS5003;58442;52.716;23.560;2022-10-31T11:57:21;6;6;5
70520;PMS5003;58442;52.716;23.560;2022-10-31T12:01:29;7;6;4
70520;PMS5003;58442;52.716;23.560;2022-10-31T12:03:51;6;5;4
70520;PMS5003;58442;52.716;23.560;2022-10-31T12:05:56;3;3;3
70520;PMS5003;58442;52.716;23.560;2022-10-31T12:08:01;7;7;5
70520;PMS5003;58442;52.716;23.560;2022-10-31T12:10:05;6;6;5
70520;PMS5003;58442;52.716;23.560;2022-10-31T12:14:31;4;4;4
70520;PMS5003;58442;52.716;23.560;2022-10-31T12:18:56;6;6;5
70520;PMS5003;58442;52.716;23.560;2022-10-31T12:21:37;4;4;4
70520;PMS5003;58442;52.716;23.560;2022-10-31T12:37:46;5;5;3
70520;PMS5003;58442;52.716;23.560;2022-10-31T13:01:20;4;4;3
70520;PMS5003;58442;52.716;23.560;2022-10-31T13:03:48;4;4;3
70520;PMS5003;58442;52.716;23.560;2022-10-31T13:06:02;3;3;2
70520;PMS5003;58442;52.716;23.560;2022-10-31T13:08:12;2;2;2
70520;PMS5003;58442;52.716;23.560;2022-10-31T13:10:24;1;1;1
70520;PMS5003;58442;52.716;23.560;2022-10-31T13:12:30;2;2;2
70520;PMS5003;58442;52.716;23.560;2022-10-31T13:16:47;4;4;3
70520;PMS5003;58442;52.716;23.560;2022-10-31T13:18:55;3;3;3
70520;PMS5003;58442;52.716;23.560;2022-10-31T13:21:03;3;3;2
70520;PMS5003;58442;52.716;23.560;2022-10-31T13:23:17;2;2;2
70520;PMS5003;58442;52.716;23.560;2022-10-31T13:25:28;4;4;4
70520;PMS5003;58442;52.716;23.560;2022-10-31T13:30:03;5;5;4
70520;PMS5003;58442;52.716;23.560;2022-10-31T13:32:10;3;3;2
70520;PMS5003;58442;52.716;23.560;2022-10-31T13:34:17;2;2;2
70520;PMS5003;58442;52.716;23.560;2022-10-31T13:38:41;2;2;2
70520;PMS5003;58442;52.716;23.560;2022-10-31T13:43:23;3;3;3
70520;PMS5003;58442;52.716;23.560;2022-10-31T13:45:14;2;2;2
70520;PMS5003;58442;52.716;23.560;2022-10-31T13:47:22;2;2;2
70520;PMS5003;58442;52.716;23.560;2022-10-31T13:51:38;4;4;3
70520;PMS5003;58442;52.716;23.560;2022-10-31T13:53:43;4;4;3
70520;PMS5003;58442;52.716;23.560;2022-10-31T13:58:22;3;3;3
70520;PMS5003;58442;52.716;23.560;2022-10-31T14:00:36;2;2;2
70520;PMS5003;58442;52.716;23.560;2022-10-31T14:02:43;2;2;2
70520;PMS5003;58442;52.716;23.560;2022-10-31T14:04:50;2;2;1
70520;PMS5003;58442;52.716;23.560;2022-10-31T14:06:57;6;6;3
70520;PMS5003;58442;52.716;23.560;2022-10-31T14:09:04;1;1;1
70520;PMS5003;58442;52.716;23.560;2022-10-31T14:11:18;2;2;1
70520;PMS5003;58442;52.716;23.560;2022-10-31T14:13:43;2;2;2
70520;PMS5003;58442;52.716;23.560;2022-10-31T14:15:58;3;3;2
70520;PMS5003;58442;52.716;23.560;2022-10-31T14:18:04;3;3;3
70520;PMS5003;58442;52.716;23.560;2022-10-31T14:22:21;3;3;3
70520;PMS5003;58442;52.716;23.560;2022-10-31T14:26:33;5;5;4
70520;PMS5003;58442;52.716;23.560;2022-10-31T14:28:36;8;8;7
70520;PMS5003;58442;52.716;23.560;2022-10-31T14:30:37;17;17;12
70520;PMS5003;58442;52.716;23.560;2022-10-31T14:32:38;12;12;11
70520;PMS5003;58442;52.716;23.560;2022-10-31T14:34:53;7;7;5
70520;PMS5003;58442;52.716;23.560;2022-10-31T14:39:13;7;7;6
70520;PMS5003;58442;52.716;23.560;2022-10-31T14:52:46;2;2;2
70520;PMS5003;58442;52.716;23.560;2022-10-31T14:54:53;4;4;4
70520;PMS5003;58442;52.716;23.560;2022-10-31T14:56:59;4;4;3
70520;PMS5003;58442;52.716;23.560;2022-10-31T14:59:09;4;4;4
70520;PMS5003;58442;52.716;23.560;2022-10-31T15:05:48;5;5;4
70520;PMS5003;58442;52.716;23.560;2022-10-31T15:07:54;1;1;1
70520;PMS5003;58442;52.716;23.560;2022-10-31T15:09:58;3;3;1
70520;PMS5003;58442;52.716;23.560;2022-10-31T15:14:26;4;4;4
70520;PMS5003;58442;52.716;23.560;2022-10-31T15:16:32;2;2;1
70520;PMS5003;58442;52.716;23.560;2022-10-31T15:18:46;2;2;2
70520;PMS5003;58442;52.716;23.560;2022-10-31T15:20:50;2;2;2
70520;PMS5003;58442;52.716;23.560;2022-10-31T15:22:54;4;4;3
70520;PMS5003;58442;52.716;23.560;2022-10-31T15:24:57;2;2;2
70520;PMS5003;58442;52.716;23.560;2022-10-31T15:26:59;4;4;3
70520;PMS5003;58442;52.716;23.560;2022-10-31T15:29:01;3;3;3
70520;PMS5003;58442;52.716;23.560;2022-10-31T15:31:05;4;4;3
70520;PMS5003;58442;52.716;23.560;2022-10-31T15:33:18;2;2;2
70520;PMS5003;58442;52.716;23.560;2022-10-31T15:35:25;2;2;1
70520;PMS5003;58442;52.716;23.560;2022-10-31T15:37:35;3;3;2
70520;PMS5003;58442;52.716;23.560;2022-10-31T15:39:36;2;2;2
70520;PMS5003;58442;52.716;23.560;2022-10-31T15:41:41;3;3;3
70520;PMS5003;58442;52.716;23.560;2022-10-31T15:43:49;2;2;2
70520;PMS5003;58442;52.716;23.560;2022-10-31T15:45:51;3;3;3
70520;PMS5003;58442;52.716;23.560;2022-10-31T15:50:17;2;2;2
70520;PMS5003;58442;52.716;23.560;2022-10-31T15:52:23;4;4;3
70520;PMS5003;58442;52.716;23.560;2022-10-31T15:54:31;2;2;1
70520;PMS5003;58442;52.716;23.560;2022-10-31T15:56:32;3;3;2
70520;PMS5003;58442;52.716;23.560;2022-10-31T15:58:39;3;3;3
70520;PMS5003;58442;52.716;23.560;2022-10-31T16:00:43;2;2;2
70520;PMS5003;58442;52.716;23.560;2022-10-31T16:02:45;3;3;2
70520;PMS5003;58442;52.716;23.560;2022-10-31T16:04:54;4;4;3
70520;PMS5003;58442;52.716;23.560;2022-10-31T16:07:02;1;1;0
70520;PMS5003;58442;52.716;23.560;2022-10-31T16:11:23;3;3;3
70520;PMS5003;58442;52.716;23.560;2022-10-31T16:13:31;3;3;2
70520;PMS5003;58442;52.716;23.560;2022-10-31T16:15:34;3;3;2
70520;PMS5003;58442;52.716;23.560;2022-10-31T16:17:40;2;2;1
70520;PMS5003;58442;52.716;23.560;2022-10-31T16:22:01;3;3;2
70520;PMS5003;58442;52.716;23.560;2022-10-31T16:26:21;2;2;2
70520;PMS5003;58442;52.716;23.560;2022-10-31T16:28:31;1;1;0
70520;PMS5003;58442;52.716;23.560;2022-10-31T16:30:38;3;3;3
70520;PMS5003;58442;52.716;23.560;2022-10-31T16:37:09;2;2;1
70520;PMS5003;58442;52.716;23.560;2022-10-31T16:39:10;3;3;3
70520;PMS5003;58442;52.716;23.560;2022-10-31T16:41:14;1;1;1
70520;PMS5003;58442;52.716;23.560;2022-10-31T16:43:16;3;3;2
70520;PMS5003;58442;52.716;23.560;2022-10-31T16:45:20;1;1;1
70520;PMS5003;58442;52.716;23.560;2022-10-31T16:47:23;3;3;3
70520;PMS5003;58442;52.716;23.560;2022-10-31T16:49:24;3;3;2
70520;PMS5003;58442;52.716;23.560;2022-10-31T16:51:25;2;2;1
70520;PMS5003;58442;52.716;23.560;2022-10-31T16:53:26;4;4;3
70520;PMS5003;58442;52.716;23.560;2022-10-31T16:55:41;2;2;2
70520;PMS5003;58442;52.716;23.560;2022-10-31T16:57:54;3;3;2
70520;PMS5003;58442;52.716;23.560;2022-10-31T16:59:56;2;2;1